createdAt,value
2024-02-06T00:00:34.370Z,9.23
2024-02-06T00:01:34.447Z,9.23
2024-02-06T00:02:34.322Z,9.20
2024-02-06T00:03:34.319Z,9.18
2024-02-06T00:04:34.452Z,9.18
2024-02-06T00:05:34.323Z,9.18
2024-02-06T00:06:34.292Z,9.18
2024-02-06T00:07:36.235Z,9.18
2024-02-06T00:08:34.305Z,9.20
2024-02-06T00:09:34.264Z,9.20
2024-02-06T00:10:34.313Z,9.18
2024-02-06T00:11:34.226Z,9.18
2024-02-06T00:12:34.253Z,9.21
2024-02-06T00:13:34.228Z,9.18
2024-02-06T00:14:34.243Z,9.18
2024-02-06T00:15:34.190Z,9.20
2024-02-06T00:16:34.298Z,9.18
2024-02-06T00:17:34.189Z,9.18
2024-02-06T00:18:34.177Z,9.18
2024-02-06T00:19:34.240Z,9.18
2024-02-06T00:20:34.247Z,9.17
2024-02-06T00:21:34.125Z,9.17
2024-02-06T00:22:34.241Z,9.15
2024-02-06T00:23:34.094Z,9.15
2024-02-06T00:24:34.102Z,9.15
2024-02-06T00:25:34.196Z,9.14
2024-02-06T00:26:34.083Z,9.14
2024-02-06T00:27:34.040Z,9.15
2024-02-06T00:28:34.106Z,9.15
2024-02-06T00:29:34.034Z,9.13
2024-02-06T00:30:34.037Z,9.14
2024-02-06T00:31:34.092Z,9.15
2024-02-06T00:32:34.071Z,9.14
2024-02-06T00:33:34.088Z,9.14
2024-02-06T00:34:34.182Z,9.13
2024-02-06T00:35:33.980Z,9.13
2024-02-06T00:36:33.961Z,9.11
2024-02-06T00:37:34.200Z,9.11
2024-02-06T00:38:33.954Z,9.14
2024-02-06T00:39:33.945Z,9.13
2024-02-06T00:40:33.991Z,9.13
2024-02-06T00:41:33.936Z,9.13
2024-02-06T00:42:33.901Z,9.13
2024-02-06T00:43:33.994Z,9.11
2024-02-06T00:44:33.883Z,9.11
2024-02-06T00:45:34.009Z,9.10
2024-02-06T00:46:33.914Z,9.11
2024-02-06T00:47:33.905Z,9.10
2024-02-06T00:48:34.078Z,9.10
2024-02-06T00:49:34.076Z,9.10
2024-02-06T00:50:34.037Z,9.11
2024-02-06T00:51:33.818Z,9.14
2024-02-06T00:52:33.815Z,9.14
2024-02-06T00:53:33.804Z,9.14
2024-02-06T00:54:33.772Z,9.13
2024-02-06T00:55:33.768Z,9.14
2024-02-06T00:56:33.727Z,9.14
2024-02-06T00:57:33.712Z,9.15
2024-02-06T00:58:33.970Z,9.15
2024-02-06T00:59:33.721Z,9.15
2024-02-06T01:00:33.688Z,9.17
2024-02-06T01:01:33.861Z,9.14
2024-02-06T01:02:33.686Z,9.15
2024-02-06T01:03:33.696Z,9.15
2024-02-06T01:04:33.768Z,9.14
2024-02-06T01:05:33.675Z,9.15
2024-02-06T01:06:33.690Z,9.14
2024-02-06T01:07:33.718Z,9.15
2024-02-06T01:08:33.633Z,9.14
2024-02-06T01:09:33.606Z,9.15
2024-02-06T01:10:33.661Z,9.14
2024-02-06T01:11:33.616Z,9.15
2024-02-06T01:12:33.560Z,9.15
2024-02-06T01:13:33.703Z,9.13
2024-02-06T01:14:33.527Z,9.15
2024-02-06T01:15:33.531Z,9.15
2024-02-06T01:16:33.625Z,9.14
2024-02-06T01:17:33.559Z,9.14
2024-02-06T01:18:33.522Z,9.14
2024-02-06T01:19:33.596Z,9.14
2024-02-06T01:20:33.461Z,9.14
2024-02-06T01:21:33.485Z,9.14
2024-02-06T01:22:33.577Z,9.13
2024-02-06T01:23:33.448Z,9.13
2024-02-06T01:24:33.453Z,9.13
2024-02-06T01:25:33.701Z,9.14
2024-02-06T01:26:33.398Z,9.11
2024-02-06T01:27:33.462Z,9.11
2024-02-06T01:28:33.681Z,9.11
2024-02-06T01:29:33.376Z,9.11
2024-02-06T01:30:33.380Z,9.13
2024-02-06T01:31:33.504Z,9.11
2024-02-06T01:32:33.387Z,9.11
2024-02-06T01:33:33.431Z,9.13
2024-02-06T01:34:33.408Z,9.10
2024-02-06T01:35:33.357Z,9.08
2024-02-06T01:36:33.305Z,9.08
2024-02-06T01:37:33.398Z,9.05
2024-02-06T01:38:33.305Z,9.05
2024-02-06T01:39:33.272Z,9.04
2024-02-06T01:40:33.334Z,9.04
2024-02-06T01:41:33.251Z,9.04
2024-02-06T01:42:33.232Z,9.02
2024-02-06T01:43:33.317Z,9.01
2024-02-06T01:44:33.219Z,9.01
2024-02-06T01:45:33.219Z,8.99
2024-02-06T01:46:33.282Z,8.96
2024-02-06T01:47:33.211Z,8.95
2024-02-06T01:48:33.342Z,8.92
2024-02-06T01:49:33.290Z,8.92
2024-02-06T01:50:33.134Z,8.89
2024-02-06T01:51:33.135Z,8.87
2024-02-06T01:52:33.202Z,8.84
2024-02-06T01:53:33.127Z,8.83
2024-02-06T01:54:33.140Z,8.81
2024-02-06T01:55:33.161Z,8.80
2024-02-06T01:56:33.098Z,8.79
2024-02-06T01:57:33.074Z,8.80
2024-02-06T01:58:33.221Z,8.77
2024-02-06T01:59:33.131Z,8.76
2024-02-06T02:00:33.049Z,8.74
2024-02-06T02:01:33.148Z,8.71
2024-02-06T02:02:33.032Z,8.74
2024-02-06T02:03:33.030Z,8.74
2024-02-06T02:04:33.125Z,8.73
2024-02-06T02:05:34.719Z,8.70
2024-02-06T02:06:33.068Z,8.70
2024-02-06T02:07:33.075Z,8.70
2024-02-06T02:08:33.088Z,8.66
2024-02-06T02:09:32.958Z,8.66
2024-02-06T02:10:32.980Z,8.65
2024-02-06T02:11:32.999Z,8.63
2024-02-06T02:12:32.966Z,8.65
2024-02-06T02:13:32.974Z,8.62
2024-02-06T02:14:32.895Z,8.61
2024-02-06T02:15:32.881Z,8.59
2024-02-06T02:16:32.956Z,8.59
2024-02-06T02:17:32.872Z,8.58
2024-02-06T02:18:32.989Z,8.56
2024-02-06T02:19:32.894Z,8.59
2024-02-06T02:20:32.820Z,8.58
2024-02-06T02:21:32.823Z,8.58
2024-02-06T02:22:32.898Z,8.58
2024-02-06T02:23:32.801Z,8.58
2024-02-06T02:24:32.786Z,8.58
2024-02-06T02:25:32.840Z,8.56
2024-02-06T02:26:32.746Z,8.58
2024-02-06T02:27:32.860Z,8.55
2024-02-06T02:28:32.887Z,8.55
2024-02-06T02:29:32.731Z,8.56
2024-02-06T02:30:32.725Z,8.53
2024-02-06T02:31:32.800Z,8.52
2024-02-06T02:32:32.723Z,8.53
2024-02-06T02:33:32.747Z,8.52
2024-02-06T02:34:32.759Z,8.50
2024-02-06T02:35:32.662Z,8.48
2024-02-06T02:36:32.690Z,8.48
2024-02-06T02:37:32.715Z,8.47
2024-02-06T02:38:32.620Z,8.47
2024-02-06T02:39:32.638Z,8.45
2024-02-06T02:40:32.670Z,8.47
2024-02-06T02:41:32.578Z,8.44
2024-02-06T02:42:32.594Z,8.44
2024-02-06T02:43:32.833Z,8.44
2024-02-06T02:44:32.575Z,8.44
2024-02-06T02:45:32.562Z,8.44
2024-02-06T02:46:32.660Z,8.45
2024-02-06T02:47:32.528Z,8.45
2024-02-06T02:48:32.706Z,8.45
2024-02-06T02:49:32.618Z,8.47
2024-02-06T02:50:32.505Z,8.48
2024-02-06T02:51:32.546Z,8.48
2024-02-06T02:52:32.619Z,8.50
2024-02-06T02:53:32.470Z,8.52
2024-02-06T02:54:32.452Z,8.48
2024-02-06T02:55:32.498Z,8.50
2024-02-06T02:56:32.441Z,8.52
2024-02-06T02:57:32.434Z,8.52
2024-02-06T02:58:32.478Z,8.50
2024-02-06T02:59:32.398Z,8.52
2024-02-06T03:00:32.383Z,8.50
2024-02-06T03:01:32.502Z,8.50
2024-02-06T03:02:32.363Z,8.48
2024-02-06T03:03:32.386Z,8.48
2024-02-06T03:04:32.374Z,8.48
2024-02-06T03:05:32.375Z,8.48
2024-02-06T03:06:32.342Z,8.48
2024-02-06T03:07:32.352Z,8.48
2024-02-06T03:08:32.328Z,8.48
2024-02-06T03:09:32.323Z,8.48
2024-02-06T03:10:32.320Z,8.48
2024-02-06T03:11:32.254Z,8.47
2024-02-06T03:12:32.264Z,8.48
2024-02-06T03:13:32.361Z,8.47
2024-02-06T03:14:32.236Z,8.45
2024-02-06T03:15:32.232Z,8.47
2024-02-06T03:16:32.312Z,8.45
2024-02-06T03:17:32.236Z,8.45
2024-02-06T03:18:32.271Z,8.45
2024-02-06T03:19:32.261Z,8.45
2024-02-06T03:20:32.191Z,8.47
2024-02-06T03:21:32.165Z,8.44
2024-02-06T03:22:32.160Z,8.45
2024-02-06T03:23:32.201Z,8.44
2024-02-06T03:24:32.144Z,8.45
2024-02-06T03:25:32.194Z,8.45
2024-02-06T03:26:32.131Z,8.44
2024-02-06T03:27:32.154Z,8.44
2024-02-06T03:28:32.203Z,8.45
2024-02-06T03:29:32.098Z,8.47
2024-02-06T03:30:32.082Z,8.47
2024-02-06T03:31:32.077Z,8.47
2024-02-06T03:32:32.053Z,8.47
2024-02-06T03:33:32.077Z,8.47
2024-02-06T03:34:32.132Z,8.48
2024-02-06T03:35:32.020Z,8.50
2024-02-06T03:36:32.009Z,8.50
2024-02-06T03:37:32.011Z,8.50
2024-02-06T03:38:32.027Z,8.52
2024-02-06T03:39:31.979Z,8.53
2024-02-06T03:40:32.044Z,8.53
2024-02-06T03:41:31.964Z,8.55
2024-02-06T03:42:31.928Z,8.55
2024-02-06T03:43:31.956Z,8.53
2024-02-06T03:44:31.907Z,8.53
2024-02-06T03:45:31.911Z,8.53
2024-02-06T03:46:32.027Z,8.55
2024-02-06T03:47:31.938Z,8.52
2024-02-06T03:48:31.995Z,8.55
2024-02-06T03:49:31.954Z,8.53
2024-02-06T03:50:31.858Z,8.53
2024-02-06T03:51:32.039Z,8.56
2024-02-06T03:52:32.000Z,8.55
2024-02-06T03:53:31.810Z,8.56
2024-02-06T03:54:31.888Z,8.56
2024-02-06T03:55:31.889Z,8.58
2024-02-06T03:56:31.867Z,8.59
2024-02-06T03:57:31.856Z,8.61
2024-02-06T03:58:31.971Z,8.59
2024-02-06T03:59:31.840Z,8.61
2024-02-06T04:00:31.887Z,8.61
2024-02-06T04:01:31.889Z,8.59
2024-02-06T04:02:31.838Z,8.59
2024-02-06T04:03:31.869Z,8.59
2024-02-06T04:04:31.774Z,8.59
2024-02-06T04:05:31.685Z,8.62
2024-02-06T04:06:31.712Z,8.62
2024-02-06T04:07:31.762Z,8.63
2024-02-06T04:08:31.737Z,8.62
2024-02-06T04:09:31.664Z,8.65
2024-02-06T04:10:31.668Z,8.66
2024-02-06T04:11:31.630Z,8.68
2024-02-06T04:12:31.625Z,8.70
2024-02-06T04:13:31.632Z,8.68
2024-02-06T04:14:31.605Z,8.70
2024-02-06T04:15:31.658Z,8.68
2024-02-06T04:16:31.615Z,8.68
2024-02-06T04:17:31.592Z,8.71
2024-02-06T04:18:31.647Z,8.71
2024-02-06T04:19:31.636Z,8.71
2024-02-06T04:20:31.532Z,8.70
2024-02-06T04:21:31.513Z,8.73
2024-02-06T04:22:31.571Z,8.73
2024-02-06T04:23:31.505Z,8.71
2024-02-06T04:24:31.495Z,8.71
2024-02-06T04:25:31.512Z,8.70
2024-02-06T04:26:31.492Z,8.70
2024-02-06T04:27:31.452Z,8.73
2024-02-06T04:28:31.541Z,8.73
2024-02-06T04:29:31.441Z,8.71
2024-02-06T04:30:31.408Z,8.71
2024-02-06T04:31:31.489Z,8.71
2024-02-06T04:32:31.481Z,8.71
2024-02-06T04:33:31.481Z,8.73
2024-02-06T04:34:31.487Z,8.74
2024-02-06T04:35:31.384Z,8.71
2024-02-06T04:36:31.355Z,8.73
2024-02-06T04:37:31.408Z,8.74
2024-02-06T04:38:31.401Z,8.76
2024-02-06T04:39:31.323Z,8.73
2024-02-06T04:40:31.444Z,8.76
2024-02-06T04:41:31.333Z,8.73
2024-02-06T04:42:31.306Z,8.76
2024-02-06T04:43:31.377Z,8.74
2024-02-06T04:44:31.257Z,8.73
2024-02-06T04:45:31.294Z,8.73
2024-02-06T04:46:31.326Z,8.73
2024-02-06T04:47:31.271Z,8.71
2024-02-06T04:48:31.356Z,8.73
2024-02-06T04:49:31.441Z,8.73
2024-02-06T04:50:31.196Z,8.71
2024-02-06T04:51:31.207Z,8.70
2024-02-06T04:52:31.190Z,8.70
2024-02-06T04:53:31.161Z,8.71
2024-02-06T04:54:31.176Z,8.70
2024-02-06T04:55:31.160Z,8.71
2024-02-06T04:56:31.139Z,8.70
2024-02-06T04:57:31.123Z,8.70
2024-02-06T04:58:31.285Z,8.71
2024-02-06T04:59:31.131Z,8.71
2024-02-06T05:00:31.153Z,8.70
2024-02-06T05:01:31.159Z,8.71
2024-02-06T05:02:31.073Z,8.70
2024-02-06T05:03:31.107Z,8.70
2024-02-06T05:04:31.187Z,8.70
2024-02-06T05:05:31.057Z,8.70
2024-02-06T05:06:31.132Z,8.68
2024-02-06T05:07:31.178Z,8.68
2024-02-06T05:08:31.333Z,8.66
2024-02-06T05:09:31.013Z,8.66
2024-02-06T05:10:31.039Z,8.66
2024-02-06T05:11:30.978Z,8.68
2024-02-06T05:12:30.971Z,8.66
2024-02-06T05:13:30.991Z,8.65
2024-02-06T05:14:30.934Z,8.65
2024-02-06T05:15:30.929Z,8.66
2024-02-06T05:16:30.980Z,8.65
2024-02-06T05:17:30.971Z,8.65
2024-02-06T05:18:31.399Z,8.65
2024-02-06T05:19:30.985Z,8.65
2024-02-06T05:20:30.870Z,8.65
2024-02-06T05:21:30.866Z,8.66
2024-02-06T05:22:30.908Z,8.66
2024-02-06T05:23:30.862Z,8.65
2024-02-06T05:24:30.852Z,8.65
2024-02-06T05:25:30.867Z,8.63
2024-02-06T05:26:30.822Z,8.65
2024-02-06T05:27:30.820Z,8.65
2024-02-06T05:28:30.885Z,8.65
2024-02-06T05:29:31.866Z,8.66
2024-02-06T05:30:30.876Z,8.66
2024-02-06T05:31:30.817Z,8.66
2024-02-06T05:32:30.818Z,8.66
2024-02-06T05:33:30.774Z,8.65
2024-02-06T05:34:30.870Z,8.66
2024-02-06T05:35:30.740Z,8.66
2024-02-06T05:36:30.723Z,8.66
2024-02-06T05:37:30.755Z,8.68
2024-02-06T05:38:30.731Z,8.70
2024-02-06T05:39:30.698Z,8.68
2024-02-06T05:40:30.705Z,8.68
2024-02-06T05:41:30.743Z,8.66
2024-02-06T05:42:30.646Z,8.70
2024-02-06T05:43:30.688Z,8.70
2024-02-06T05:44:30.682Z,8.70
2024-02-06T05:45:30.737Z,8.68
2024-02-06T05:46:30.638Z,8.68
2024-02-06T05:47:30.645Z,8.70
2024-02-06T05:48:30.712Z,8.73
2024-02-06T05:49:30.670Z,8.71
2024-02-06T05:50:31.046Z,8.74
2024-02-06T05:51:30.550Z,8.74
2024-02-06T05:52:30.582Z,8.74
2024-02-06T05:53:30.531Z,8.74
2024-02-06T05:54:30.560Z,8.74
2024-02-06T05:55:30.697Z,8.74
2024-02-06T05:56:30.520Z,8.74
2024-02-06T05:57:30.499Z,8.77
2024-02-06T05:58:30.565Z,8.77
2024-02-06T05:59:30.474Z,8.77
2024-02-06T06:00:30.492Z,8.80
2024-02-06T06:01:30.557Z,8.81
2024-02-06T06:02:30.449Z,8.83
2024-02-06T06:03:30.417Z,8.84
2024-02-06T06:04:31.366Z,8.84
2024-02-06T06:05:30.537Z,8.83
2024-02-06T06:06:30.439Z,8.84
2024-02-06T06:07:30.501Z,8.86
2024-02-06T06:08:30.373Z,8.87
2024-02-06T06:09:30.352Z,8.89
2024-02-06T06:10:30.403Z,8.91
2024-02-06T06:11:30.360Z,8.87
2024-02-06T06:12:30.327Z,8.91
2024-02-06T06:13:30.432Z,8.91
2024-02-06T06:14:30.288Z,8.92
2024-02-06T06:15:30.310Z,8.94
2024-02-06T06:16:30.336Z,8.95
2024-02-06T06:17:30.319Z,8.98
2024-02-06T06:18:30.338Z,8.96
2024-02-06T06:19:30.338Z,8.96
2024-02-06T06:20:30.239Z,8.96
2024-02-06T06:21:30.211Z,8.98
2024-02-06T06:22:30.257Z,8.99
2024-02-06T06:23:30.214Z,8.99
2024-02-06T06:24:30.225Z,8.99
2024-02-06T06:25:30.219Z,8.99
2024-02-06T06:26:30.169Z,8.99
2024-02-06T06:27:30.173Z,8.98
2024-02-06T06:28:30.232Z,8.96
2024-02-06T06:29:30.202Z,8.98
2024-02-06T06:30:30.140Z,8.99
2024-02-06T06:31:30.153Z,9.01
2024-02-06T06:32:30.124Z,9.04
2024-02-06T06:33:30.172Z,9.05
2024-02-06T06:34:30.155Z,9.04
2024-02-06T06:35:30.056Z,9.05
2024-02-06T06:36:30.058Z,9.05
2024-02-06T06:37:30.085Z,9.04
2024-02-06T06:38:30.052Z,9.08
2024-02-06T06:39:30.054Z,9.05
2024-02-06T06:40:30.014Z,9.10
2024-02-06T06:41:30.005Z,9.05
2024-02-06T06:42:30.043Z,9.05
2024-02-06T06:43:30.561Z,9.08
2024-02-06T06:44:29.999Z,9.08
2024-02-06T06:45:29.975Z,9.08
2024-02-06T06:46:29.975Z,9.05
2024-02-06T06:47:30.005Z,9.05
2024-02-06T06:48:29.973Z,9.10
2024-02-06T06:49:29.995Z,9.10
2024-02-06T06:50:29.925Z,9.08
2024-02-06T06:51:29.887Z,9.08
2024-02-06T06:52:29.951Z,9.11
2024-02-06T06:53:29.865Z,9.10
2024-02-06T06:54:29.880Z,9.10
2024-02-06T06:55:29.871Z,9.11
2024-02-06T06:56:29.844Z,9.13
2024-02-06T06:57:29.888Z,9.13
2024-02-06T06:58:29.891Z,9.10
2024-02-06T06:59:29.805Z,9.13
2024-02-06T07:00:29.889Z,9.11
2024-02-06T07:01:29.957Z,9.13
2024-02-06T07:02:29.781Z,9.13
2024-02-06T07:03:29.854Z,9.13
2024-02-06T07:04:30.005Z,9.15
2024-02-06T07:05:29.741Z,9.17
2024-02-06T07:06:29.889Z,9.17
2024-02-06T07:07:29.764Z,9.17
2024-02-06T07:08:29.735Z,9.17
2024-02-06T07:09:29.734Z,9.17
2024-02-06T07:10:29.751Z,9.18
2024-02-06T07:11:29.694Z,9.20
2024-02-06T07:12:29.676Z,9.18
2024-02-06T07:13:29.701Z,9.20
2024-02-06T07:14:29.688Z,9.21
2024-02-06T07:15:29.636Z,9.21
2024-02-06T07:16:29.658Z,9.21
2024-02-06T07:17:29.684Z,9.21
2024-02-06T07:18:29.639Z,9.21
2024-02-06T07:19:29.820Z,9.24
2024-02-06T07:20:29.592Z,9.24
2024-02-06T07:21:29.590Z,9.23
2024-02-06T07:22:29.618Z,9.24
2024-02-06T07:23:29.553Z,9.26
2024-02-06T07:24:29.555Z,9.28
2024-02-06T07:25:29.601Z,9.26
2024-02-06T07:26:29.518Z,9.28
2024-02-06T07:27:29.532Z,9.28
2024-02-06T07:28:29.569Z,9.28
2024-02-06T07:29:29.502Z,9.26
2024-02-06T07:30:34.413Z,9.28
2024-02-06T07:31:29.541Z,9.28
2024-02-06T07:32:29.551Z,9.31
2024-02-06T07:33:29.528Z,9.29
2024-02-06T07:34:29.494Z,9.31
2024-02-06T07:35:29.442Z,9.31
2024-02-06T07:36:29.407Z,9.32
2024-02-06T07:37:29.495Z,9.32
2024-02-06T07:38:29.397Z,9.32
2024-02-06T07:39:29.367Z,9.31
2024-02-06T07:40:29.431Z,9.33
2024-02-06T07:41:29.372Z,9.32
2024-02-06T07:42:29.359Z,9.35
2024-02-06T07:43:29.362Z,9.35
2024-02-06T07:44:29.318Z,9.33
2024-02-06T07:45:29.352Z,9.33
2024-02-06T07:46:29.386Z,9.35
2024-02-06T07:47:29.331Z,9.35
2024-02-06T07:48:29.321Z,9.38
2024-02-06T07:49:29.396Z,9.36
2024-02-06T07:50:29.268Z,9.39
2024-02-06T07:51:29.265Z,9.38
2024-02-06T07:52:29.306Z,9.40
2024-02-06T07:53:29.236Z,9.40
2024-02-06T07:54:29.244Z,9.40
2024-02-06T07:55:29.253Z,9.42
2024-02-06T07:56:31.173Z,9.43
2024-02-06T07:57:29.200Z,9.46
2024-02-06T07:58:29.211Z,9.43
2024-02-06T07:59:29.199Z,9.46
2024-02-06T08:00:29.163Z,9.46
2024-02-06T08:01:29.219Z,9.47
2024-02-06T08:02:29.146Z,9.48
2024-02-06T08:03:29.223Z,9.48
2024-02-06T08:04:29.204Z,9.48
2024-02-06T08:05:29.231Z,9.48
2024-02-06T08:06:29.189Z,9.48
2024-02-06T08:07:29.371Z,9.51
2024-02-06T08:08:29.141Z,9.53
2024-02-06T08:09:29.055Z,9.51
2024-02-06T08:10:29.093Z,9.51
2024-02-06T08:11:29.043Z,9.53
2024-02-06T08:12:29.043Z,9.54
2024-02-06T08:13:29.075Z,9.53
2024-02-06T08:14:28.998Z,9.53
2024-02-06T08:15:28.991Z,9.54
2024-02-06T08:16:29.077Z,9.56
2024-02-06T08:17:29.022Z,9.56
2024-02-06T08:18:29.069Z,9.56
2024-02-06T08:19:29.193Z,9.54
2024-02-06T08:20:29.015Z,9.54
2024-02-06T08:21:28.959Z,9.54
2024-02-06T08:22:28.945Z,9.54
2024-02-06T08:23:28.926Z,9.53
2024-02-06T08:24:28.951Z,9.53
2024-02-06T08:25:29.770Z,9.54
2024-02-06T08:26:28.937Z,9.54
2024-02-06T08:27:28.870Z,9.53
2024-02-06T08:28:28.896Z,9.56
2024-02-06T08:29:28.858Z,9.56
2024-02-06T08:30:28.857Z,9.58
2024-02-06T08:31:28.917Z,9.58
2024-02-06T08:32:28.849Z,9.58
2024-02-06T08:33:28.840Z,9.61
2024-02-06T08:34:28.880Z,9.61
2024-02-06T08:35:28.874Z,9.64
2024-02-06T08:36:29.252Z,9.65
2024-02-06T08:37:28.856Z,9.66
2024-02-06T08:38:29.067Z,9.69
2024-02-06T08:39:28.785Z,9.69
2024-02-06T08:40:28.829Z,9.71
2024-02-06T08:41:28.753Z,9.71
2024-02-06T08:42:28.696Z,9.71
2024-02-06T08:43:38.943Z,9.74
2024-02-06T08:44:28.743Z,9.76
2024-02-06T08:45:28.670Z,9.76
2024-02-06T08:46:30.082Z,9.75
2024-02-06T08:47:28.657Z,9.75
2024-02-06T08:48:28.707Z,9.79
2024-02-06T08:49:28.771Z,9.79
2024-02-06T08:50:28.718Z,9.81
2024-02-06T08:51:28.599Z,9.81
2024-02-06T08:52:28.689Z,9.83
2024-02-06T08:53:28.583Z,9.83
2024-02-06T08:54:28.559Z,9.84
2024-02-06T08:55:28.749Z,9.87
2024-02-06T08:56:28.565Z,9.87
2024-02-06T08:57:28.558Z,9.87
2024-02-06T08:58:28.966Z,9.89
2024-02-06T08:59:28.577Z,9.89
2024-02-06T09:00:28.523Z,9.90
2024-02-06T09:01:28.708Z,9.90
2024-02-06T09:02:28.661Z,9.91
2024-02-06T09:03:29.304Z,9.91
2024-02-06T09:04:28.594Z,9.93
2024-02-06T09:05:28.811Z,9.94
2024-02-06T09:06:28.569Z,9.96
2024-02-06T09:07:28.512Z,9.97
2024-02-06T09:08:28.432Z,9.97
2024-02-06T09:09:28.430Z,9.97
2024-02-06T09:10:29.096Z,9.99
2024-02-06T09:11:28.412Z,10.01
2024-02-06T09:12:28.381Z,10.04
2024-02-06T09:13:28.476Z,10.05
2024-02-06T09:14:28.380Z,10.04
2024-02-06T09:15:28.358Z,10.05
2024-02-06T09:16:28.472Z,10.07
2024-02-06T09:17:28.398Z,10.08
2024-02-06T09:18:28.451Z,10.09
2024-02-06T09:19:28.397Z,10.11
2024-02-06T09:20:28.470Z,10.12
2024-02-06T09:21:28.324Z,10.14
2024-02-06T09:22:28.335Z,10.17
2024-02-06T09:23:28.278Z,10.17
2024-02-06T09:24:28.263Z,10.17
2024-02-06T09:25:28.287Z,10.17
2024-02-06T09:26:28.263Z,10.17
2024-02-06T09:27:28.238Z,10.20
2024-02-06T09:28:28.272Z,10.20
2024-02-06T09:29:28.200Z,10.20
2024-02-06T09:30:28.189Z,10.20
2024-02-06T09:31:28.225Z,10.20
2024-02-06T09:32:28.194Z,10.20
2024-02-06T09:33:28.295Z,10.18
2024-02-06T09:34:28.219Z,10.20
2024-02-06T09:35:28.221Z,10.22
2024-02-06T09:36:28.119Z,10.23
2024-02-06T09:37:28.196Z,10.23
2024-02-06T09:38:28.125Z,10.23
2024-02-06T09:39:28.111Z,10.23
2024-02-06T09:40:28.122Z,10.23
2024-02-06T09:41:28.115Z,10.25
2024-02-06T09:42:28.082Z,10.25
2024-02-06T09:43:28.110Z,10.25
2024-02-06T09:44:28.030Z,10.26
2024-02-06T09:45:28.041Z,10.27
2024-02-06T09:46:28.060Z,10.29
2024-02-06T09:47:28.053Z,10.27
2024-02-06T09:48:28.080Z,10.30
2024-02-06T09:49:28.078Z,10.30
2024-02-06T09:50:27.970Z,10.30
2024-02-06T09:51:27.970Z,10.33
2024-02-06T09:52:27.990Z,10.33
2024-02-06T09:53:27.941Z,10.33
2024-02-06T09:54:27.989Z,10.38
2024-02-06T09:55:28.035Z,10.38
2024-02-06T09:56:27.937Z,10.40
2024-02-06T09:57:27.941Z,10.41
2024-02-06T09:58:28.134Z,10.42
2024-02-06T09:59:27.884Z,10.41
2024-02-06T10:00:27.894Z,10.45
2024-02-06T10:01:27.928Z,10.47
2024-02-06T10:02:27.846Z,10.51
2024-02-06T10:03:27.873Z,10.52
2024-02-06T10:04:27.953Z,10.53
2024-02-06T10:05:27.892Z,10.52
2024-02-06T10:06:27.887Z,10.52
2024-02-06T10:07:27.875Z,10.55
2024-02-06T10:08:27.823Z,10.53
2024-02-06T10:09:29.180Z,10.56
2024-02-06T10:10:27.801Z,10.59
2024-02-06T10:11:27.758Z,10.61
2024-02-06T10:12:27.766Z,10.60
2024-02-06T10:13:27.755Z,10.60
2024-02-06T10:14:27.713Z,10.63
2024-02-06T10:15:29.880Z,10.61
2024-02-06T10:16:27.726Z,10.63
2024-02-06T10:17:27.700Z,10.64
2024-02-06T10:18:27.705Z,10.66
2024-02-06T10:19:27.856Z,10.64
2024-02-06T10:20:27.670Z,10.64
2024-02-06T10:21:29.418Z,10.63
2024-02-06T10:22:27.652Z,10.67
2024-02-06T10:23:27.614Z,10.68
2024-02-06T10:24:27.600Z,10.68
2024-02-06T10:25:27.635Z,10.70
2024-02-06T10:26:27.600Z,10.71
2024-02-06T10:27:27.608Z,10.74
2024-02-06T10:28:27.618Z,10.76
2024-02-06T10:29:27.581Z,10.76
2024-02-06T10:30:27.554Z,10.78
2024-02-06T10:31:27.630Z,10.81
2024-02-06T10:32:27.533Z,10.84
2024-02-06T10:33:29.877Z,10.82
2024-02-06T10:34:28.311Z,10.82
2024-02-06T10:35:27.639Z,10.81
2024-02-06T10:36:27.500Z,10.84
2024-02-06T10:37:27.564Z,10.79
2024-02-06T10:38:27.475Z,10.79
2024-02-06T10:39:27.910Z,10.81
2024-02-06T10:40:27.452Z,10.82
2024-02-06T10:41:38.930Z,10.85
2024-02-06T10:43:08.274Z,10.86
2024-02-06T10:43:46.164Z,10.89
2024-02-06T10:44:27.488Z,10.89
2024-02-06T10:45:27.398Z,10.85
2024-02-06T10:46:27.387Z,10.85
2024-02-06T10:47:27.367Z,10.84
2024-02-06T10:48:27.452Z,10.82
2024-02-06T10:49:27.489Z,10.84
2024-02-06T10:50:27.492Z,10.85
2024-02-06T10:51:29.778Z,10.84
2024-02-06T10:52:27.354Z,10.79
2024-02-06T10:53:27.319Z,10.81
2024-02-06T10:54:27.338Z,10.79
2024-02-06T10:55:27.348Z,10.79
2024-02-06T10:56:27.317Z,10.81
2024-02-06T10:57:28.108Z,10.82
2024-02-06T10:58:27.278Z,10.82
2024-02-06T10:59:27.262Z,10.84
2024-02-06T11:00:27.295Z,10.82
2024-02-06T11:01:27.338Z,10.82
2024-02-06T11:02:27.271Z,10.82
2024-02-06T11:03:28.787Z,10.79
2024-02-06T11:04:27.272Z,10.81
2024-02-06T11:05:27.199Z,10.78
2024-02-06T11:06:27.215Z,10.74
2024-02-06T11:07:27.224Z,10.74
2024-02-06T11:08:27.131Z,10.74
2024-02-06T11:09:29.196Z,10.76
2024-02-06T11:10:27.174Z,10.76
2024-02-06T11:11:27.124Z,10.79
2024-02-06T11:12:34.703Z,10.79
2024-02-06T11:13:27.135Z,10.81
2024-02-06T11:14:27.078Z,10.79
2024-02-06T11:15:27.739Z,10.78
2024-02-06T11:16:27.221Z,10.79
2024-02-06T11:17:27.053Z,10.79
2024-02-06T11:18:27.087Z,10.76
2024-02-06T11:19:27.131Z,10.76
2024-02-06T11:20:27.093Z,10.74
2024-02-06T11:21:29.001Z,10.73
2024-02-06T11:22:27.047Z,10.71
2024-02-06T11:23:26.987Z,10.68
2024-02-06T11:24:26.967Z,10.66
2024-02-06T11:25:27.008Z,10.64
2024-02-06T11:26:26.943Z,10.64
2024-02-06T11:27:26.922Z,10.63
2024-02-06T11:28:27.073Z,10.63
2024-02-06T11:29:26.913Z,10.63
2024-02-06T11:30:26.886Z,10.61
2024-02-06T11:31:26.910Z,10.61
2024-02-06T11:32:26.938Z,10.63
2024-02-06T11:33:26.953Z,10.63
2024-02-06T11:34:26.901Z,10.66
2024-02-06T11:35:26.881Z,10.64
2024-02-06T11:36:26.854Z,10.63
2024-02-06T11:37:26.911Z,10.61
2024-02-06T11:38:26.823Z,10.60
2024-02-06T11:39:26.790Z,10.59
2024-02-06T11:40:26.845Z,10.60
2024-02-06T11:41:26.787Z,10.59
2024-02-06T11:42:26.786Z,10.59
2024-02-06T11:43:26.910Z,10.60
2024-02-06T11:44:26.777Z,10.60
2024-02-06T11:45:26.729Z,10.61
2024-02-06T11:46:26.830Z,10.61
2024-02-06T11:47:26.739Z,10.66
2024-02-06T11:48:27.628Z,10.66
2024-02-06T11:49:27.266Z,10.67
2024-02-06T11:50:28.519Z,10.68
2024-02-06T11:51:26.835Z,10.71
2024-02-06T11:52:26.733Z,10.71
2024-02-06T11:53:26.678Z,10.73
2024-02-06T11:54:26.790Z,10.73
2024-02-06T11:55:26.646Z,10.73
2024-02-06T11:56:26.661Z,10.74
2024-02-06T11:57:26.657Z,10.76
2024-02-06T11:58:26.677Z,10.79
2024-02-06T11:59:26.593Z,10.81
2024-02-06T12:00:26.592Z,10.82
2024-02-06T12:01:26.834Z,10.85
2024-02-06T12:02:26.642Z,10.85
2024-02-06T12:03:26.534Z,10.88
2024-02-06T12:04:26.584Z,10.89
2024-02-06T12:05:26.602Z,10.88
2024-02-06T12:06:26.578Z,10.89
2024-02-06T12:07:26.880Z,10.92
2024-02-06T12:08:27.583Z,10.94
2024-02-06T12:09:26.541Z,10.94
2024-02-06T12:10:26.496Z,10.97
2024-02-06T12:11:26.464Z,10.99
2024-02-06T12:12:26.458Z,11.00
2024-02-06T12:13:26.483Z,10.99
2024-02-06T12:14:26.415Z,11.02
2024-02-06T12:15:26.411Z,11.03
2024-02-06T12:16:26.416Z,11.04
2024-02-06T12:17:26.449Z,11.04
2024-02-06T12:18:26.422Z,11.06
2024-02-06T12:19:26.586Z,11.07
2024-02-06T12:20:26.497Z,11.07
2024-02-06T12:21:26.392Z,11.09
2024-02-06T12:22:26.398Z,11.09
2024-02-06T12:23:26.357Z,11.09
2024-02-06T12:24:26.326Z,11.07
2024-02-06T12:25:26.430Z,11.09
2024-02-06T12:26:26.317Z,11.09
2024-02-06T12:27:26.291Z,11.10
2024-02-06T12:28:26.333Z,11.11
2024-02-06T12:29:26.283Z,11.11
2024-02-06T12:30:26.272Z,11.14
2024-02-06T12:31:26.314Z,11.17
2024-02-06T12:32:26.317Z,11.17
2024-02-06T12:33:26.308Z,11.17
2024-02-06T12:34:26.369Z,11.17
2024-02-06T12:35:26.189Z,11.18
2024-02-06T12:36:26.199Z,11.21
2024-02-06T12:37:26.220Z,11.22
2024-02-06T12:38:26.195Z,11.22
2024-02-06T12:39:26.162Z,11.25
2024-02-06T12:40:26.226Z,11.25
2024-02-06T12:41:26.121Z,11.25
2024-02-06T12:42:26.112Z,11.28
2024-02-06T12:43:26.161Z,11.28
2024-02-06T12:44:41.267Z,11.27
2024-02-06T12:45:26.098Z,11.28
2024-02-06T12:46:26.109Z,11.29
2024-02-06T12:47:26.106Z,11.25
2024-02-06T12:48:26.095Z,11.27
2024-02-06T12:49:26.128Z,11.25
2024-02-06T12:50:26.131Z,11.25
2024-02-06T12:51:26.060Z,11.24
2024-02-06T12:52:26.068Z,11.27
2024-02-06T12:53:26.028Z,11.24
2024-02-06T12:54:25.999Z,11.25
2024-02-06T12:55:26.584Z,11.25
2024-02-06T12:56:25.973Z,11.24
2024-02-06T12:57:25.960Z,11.22
2024-02-06T12:58:25.983Z,11.24
2024-02-06T13:00:25.958Z,11.25
2024-02-06T13:01:26.008Z,11.24
2024-02-06T13:02:26.062Z,11.25
2024-02-06T13:03:26.081Z,11.25
2024-02-06T13:04:26.178Z,11.25
2024-02-06T13:05:26.962Z,11.25
2024-02-06T13:06:26.004Z,11.22
2024-02-06T13:07:25.986Z,11.24
2024-02-06T13:08:28.540Z,11.24
2024-02-06T13:09:25.842Z,11.24
2024-02-06T13:10:26.292Z,11.25
2024-02-06T13:11:25.816Z,11.25